Sharon Springs, Kansas
Current Conditions -  °F | °C
As of 4:53 PM on Sunday 23 Nov 2014 (Local Time) from KGLD Reporting Station
Clear Clear  
Wind Chill: 30°   Ceiling: Unl
Heat Index: 39°   Visibility: 10mi
Dew Point: 10°   Wind: 17mph
Humidity: 30%   Direction: 350°N
Pressure: 29.76"   Gusts: NA
Location:  38.9°N, 101.75°W
Report Text: KGLD 232353Z AUTO 35015KT 10SM CLR 04/M12 A2976 RMK AO2 PK WND 36026/2257 SLP078 T00391122 10089 20039 51021
Loading
Personal Weather Stations






























Interactive Weather Map New forecast layout! Learn more

10-Day Weather Forecast

Advertisements
Track Severe Weather on mobile